Hebron, MD

12:59 AM EDT on April 18, 2015 (GMT -0400)
Sussex County | | Change Station
CLOSE
Current Station
Airport
Location: Georgetown,
Elevation: 52 ft
Nearby Weather Stations

Elev 52 ft 38.69 °N, 75.36 °W | Updated 5 minutes ago

Mostly Cloudy
Mostly Cloudy
62 °F
Feels Like 62 °F
N
7
Wind Variable Wind from South

Today
High -- | Low -- °F
--% Chance of Precip.
Yesterday
High -- | Low -- °F
Precip. -- in
6:23 AM 7:41 PM
Waning Crescent, 0% visible
Pressure 29.98 in
Visibility 9.0 miles
Clouds Mostly Cloudy 6000 ft
Overcast 9000 ft
Dew Point 61 °F
Humidity 96%
Rainfall 0.04 in
Snow Depth Not available.
UV 0 out of 12
Pollen 9.20 out of 12
Air Quality Not available.
Flu Activity Regional
METAR KGED 180454Z AUTO 17006KT 9SM BKN060 OVC090 17/16 A2998 RMK AO2 LTG DSNT SE RAB0355E31 SLP152 P0004 T01670161 402390117

More Conditions Fewer Conditions

Pressure 29.98 in
Visibility 9.0 miles
Clouds Mostly Cloudy 6000 ft
Overcast 9000 ft
Dew Point 61 °F
Humidity 96%
Rainfall 0.04 in
Snow Depth Not available.
UV 0 out of 12
Pollen 9.20 out of 12
Air Quality Not available.
Flu Activity Regional
METAR KGED 180454Z AUTO 17006KT 9SM BKN060 OVC090 17/16 A2998 RMK AO2 LTG DSNT SE RAB0355E31 SLP152 P0004 T01670161 402390117

More Conditions Fewer Conditions

10-Day Weather Forecast

Almanac

Astronomy

Apr. 18, 2015 Rise Set
Actual Time
Civil Twilight
Nautical Twilight
Astronomical Twilight
Moon
Length of Visible Light
Length of Day
Tomorrow will be .
, % of the Moon is Illuminated

Today's Extremes

State Highs State Lows

Community

WunderPhotos

Upload Photos

1,814,342 photos uploaded!

WunderBlogs® & News

Nearby

Air Quality

  Air Quality AQ Index Pollutant
Not available.

Snow Depth

Station Depth Elevation

Earthquake Activity

City Distance Mag. Time & Date
Minimum magnitude displayed is 2.5.

Coastal Water Temperatures

Place Temperature

Stations

Nearby Weather Stations

Station Location Temp. Windchill Dew Point Humidity Wind Precip. Elev Updated Type